Warr Acres, Oklahoma
Current Conditions -  °F | °C
As of 7:53 PM on Friday 24 Oct 2014 (Local Time) from KPWA Reporting Station
Clear Clear  
Wind Chill: 74°   Ceiling: Unl
Heat Index: 74°   Visibility: 10mi
Dew Point: 62°   Wind: 12mph
Humidity: 66%   Direction: 170°S
Pressure: 30.03"   Gusts: NA
Location:  35.5369°N, 97.6228°W
Report Text: KPWA 250053Z 17010KT 10SM CLR 23/17 A3003 RMK AO2 SLP162 T02330167
Loading
Personal Weather Stations






























Interactive Weather Map
Tropical Storm Tracking
New forecast layout! Learn more

10-Day Weather Forecast

Advertisements
Track Severe Weather on mobile